Four Corners Regional Airport
KFMN : now visible

Airfield :











YOU CAN JOIN US ON...

 
LOGIN :

Register | Disclaimer

   EN    FR    IT 

 









Legend :    VFR   Marginal VFR   IFR   Intensive IFR   Very Intensive IFR
Visi :
Ceiling :
>= 8 km
>= 3000ft
5 to 8 km
1000 to 3000 ft
1500m to 5 km
500 to 1000 ft
800 to 1500m
200 to 500 ft
< 800m
< 200 ft
Symbols :   Thunderstorms  Fog  Heavy snow  Heavy precipitations  Wind > 20 kt






- Airport Elevation : 5506 ft


KFMN - Four Corners Regional

CURRENT METAR :
  • 291653Z 13006KT 10SM CLR 27/04 A3027 RMK AO2 SLP182 T02670039

EXPIRED METARs :
  • 291553Z 10009KT 10SM CLR 26/04 A3029 RMK AO2 SLP187 T02560039
  • 291453Z 09009KT 10SM CLR 22/04 A3030 RMK AO2 SLP190 T02220039 51012

TAF KFMN
Valid from the 29 at 12:00 until the 30 at 12:00 UTC


291130Z 2912/3012 08010KT P6SM SCT200
FM291600 11007KT P6SM FEW100
FM292100 24012G20KT P6SM SCT120
FM300300 10011KT P6SM BKN100
KZDV FIR / North America



MET'MAP, your aeronautical weather chart ! - Copyright ORBIFLY December 2007 - Disclaimer

ORBIFLY MET'MAP TEAM :

Programming & Development : Alexandra Zaïnal
Concept & original design : Baudouin d'Aumeries
Assistance for programming : Marc-Olivier Méhu
Technical & hardware support : Manuel Goepfert

Contact : metmap@orbifly.com




SOURCES & CREDITS :

   NOAA       Earth
Advisory